Time;durP1;ratioP1;P1;durP2;ratioP2;P2;SDS_P1;SDS_P2;PMS_P1;PMS_P2;Temp;Humidity;BMP_temperature;BMP_pressure;BME280_temperature;BME280_humidity;BME280_pressure;Samples;Min_cycle;Max_cycle;Signal;HPM_P1;HPM_P2
2023/11/01 00:00:48;;;;;;;6.22;4.20;;;;;;;;;;5896756;28;20415;-75
2023/11/01 00:03:39;;;;;;;5.07;2.90;;;;;;;;;;5885156;28;20052;-75
2023/11/01 00:06:30;;;;;;;3.67;3.28;;;;;;;;;;5886396;28;20498;-74
2023/11/01 00:09:20;;;;;;;4.05;3.13;;;;;;;;;;5885936;28;20064;-75
2023/11/01 00:12:11;;;;;;;7.88;3.92;;;;;;;;;;5886348;28;20053;-74
2023/11/01 00:15:03;;;;;;;24.13;4.43;;;;;;;;;;5886354;28;20474;-73
2023/11/01 00:17:54;;;;;;;3.47;3.00;;;;;;;;;;5886651;28;20521;-75
2023/11/01 00:20:44;;;;;;;11.32;5.05;;;;;;;;;;5886315;28;20574;-75
2023/11/01 00:23:35;;;;;;;4.82;3.55;;;;;;;;;;5886314;28;20489;-74
2023/11/01 00:26:26;;;;;;;6.47;3.92;;;;;;;;;;5886250;28;20043;-75
2023/11/01 00:29:17;;;;;;;5.15;3.30;;;;;;;;;;5886246;28;20122;-73
2023/11/01 00:32:08;;;;;;;7.63;3.58;;;;;;;;;;5886110;28;20418;-74
2023/11/01 00:34:59;;;;;;;3.95;2.78;;;;;;;;;;5886608;28;20052;-75
2023/11/01 00:37:50;;;;;;;4.13;3.55;;;;;;;;;;5886388;28;20096;-74
2023/11/01 00:40:40;;;;;;;5.82;3.20;;;;;;;;;;5886082;28;20052;-74
2023/11/01 00:43:31;;;;;;;7.55;4.70;;;;;;;;;;5885781;28;20859;-74
2023/11/01 00:46:22;;;;;;;10.57;5.22;;;;;;;;;;5886112;28;20515;-74
2023/11/01 00:49:13;;;;;;;6.32;4.47;;;;;;;;;;5885909;28;20550;-74
2023/11/01 00:52:04;;;;;;;5.05;3.65;;;;;;;;;;5885811;28;20542;-73
2023/11/01 00:54:54;;;;;;;8.15;4.55;;;;;;;;;;5886288;28;20052;-74
2023/11/01 00:57:47;;;;;;;4.68;4.07;;;;;;;;;;5885581;28;20080;-74
2023/11/01 01:00:38;;;;;;;8.73;4.10;;;;;;;;;;5888981;28;20041;-74
2023/11/01 01:03:29;;;;;;;7.25;4.35;;;;;;;;;;5909833;28;20045;-74
2023/11/01 01:06:20;;;;;;;5.22;4.28;;;;;;;;;;5913312;28;20052;-74
2023/11/01 01:09:12;;;;;;;4.43;4.03;;;;;;;;;;5913408;28;20056;-74
2023/11/01 01:12:03;;;;;;;7.60;3.95;;;;;;;;;;5913411;28;20059;-74
2023/11/01 01:14:54;;;;;;;5.20;3.85;;;;;;;;;;5913427;28;20049;-74
2023/11/01 01:17:44;;;;;;;4.85;3.25;;;;;;;;;;5913049;28;20040;-75
2023/11/01 01:20:36;;;;;;;6.05;4.15;;;;;;;;;;5913156;28;20055;-74
2023/11/01 01:23:27;;;;;;;5.55;4.10;;;;;;;;;;5913005;28;20044;-73
2023/11/01 01:26:17;;;;;;;8.00;4.97;;;;;;;;;;5913013;28;20044;-74
2023/11/01 01:29:08;;;;;;;6.85;4.63;;;;;;;;;;5912880;28;20052;-74
2023/11/01 01:31:59;;;;;;;7.25;5.05;;;;;;;;;;5913378;28;20094;-74
2023/11/01 01:34:50;;;;;;;7.90;4.32;;;;;;;;;;5912937;28;20506;-74
2023/11/01 01:37:40;;;;;;;5.80;4.72;;;;;;;;;;5911106;28;20110;-74
2023/11/01 01:40:34;;;;;;;7.60;4.25;;;;;;;;;;5912447;28;20056;-73
2023/11/01 01:43:25;;;;;;;8.00;5.15;;;;;;;;;;5911212;28;20433;-74
2023/11/01 01:46:17;;;;;;;4.68;4.15;;;;;;;;;;5912549;28;20055;-74
2023/11/01 01:49:08;;;;;;;5.10;3.13;;;;;;;;;;5912484;28;20049;-73
2023/11/01 01:52:00;;;;;;;10.13;5.10;;;;;;;;;;5912884;28;20525;-74
2023/11/01 01:54:51;;;;;;;5.25;3.83;;;;;;;;;;5912511;28;20036;-75
2023/11/01 01:57:42;;;;;;;9.32;3.58;;;;;;;;;;5912281;28;20045;-75
2023/11/01 02:00:34;;;;;;;3.70;3.38;;;;;;;;;;5912448;28;20413;-74
2023/11/01 02:03:25;;;;;;;5.47;3.38;;;;;;;;;;5909997;28;20654;-74
2023/11/01 02:06:17;;;;;;;5.22;3.95;;;;;;;;;;5912282;28;20155;-74
2023/11/01 02:09:15;;;;;;;10.32;4.40;;;;;;;;;;5912083;28;20046;-74
2023/11/01 02:12:06;;;;;;;4.50;3.47;;;;;;;;;;5911598;28;20078;-74
2023/11/01 02:14:57;;;;;;;3.97;2.40;;;;;;;;;;5912351;28;20058;-74
2023/11/01 02:17:48;;;;;;;7.13;2.90;;;;;;;;;;5911749;28;20073;-74
2023/11/01 02:20:44;;;;;;;6.10;3.10;;;;;;;;;;5911921;28;20147;-74
2023/11/01 02:23:35;;;;;;;5.05;3.70;;;;;;;;;;5911839;28;20114;-75
2023/11/01 02:26:26;;;;;;;4.03;3.65;;;;;;;;;;5911725;28;20048;-74
2023/11/01 02:29:17;;;;;;;3.03;2.72;;;;;;;;;;5911458;28;20053;-74
2023/11/01 02:32:08;;;;;;;4.20;3.22;;;;;;;;;;5911460;28;20048;-74
2023/11/01 02:35:00;;;;;;;3.05;2.80;;;;;;;;;;5911870;28;20060;-75
2023/11/01 02:37:50;;;;;;;5.53;4.10;;;;;;;;;;5911388;28;20045;-74
2023/11/01 02:40:41;;;;;;;4.43;3.40;;;;;;;;;;5911453;28;20067;-75
2023/11/01 02:43:32;;;;;;;6.65;2.97;;;;;;;;;;5911097;28;20052;-74
2023/11/01 02:46:23;;;;;;;2.50;2.28;;;;;;;;;;5911256;28;20494;-74
2023/11/01 02:49:14;;;;;;;5.88;3.70;;;;;;;;;;5911201;28;20048;-75
2023/11/01 02:52:04;;;;;;;3.80;3.20;;;;;;;;;;5911139;28;20052;-74
2023/11/01 02:54:55;;;;;;;5.72;2.70;;;;;;;;;;5911331;28;20052;-74
2023/11/01 02:57:46;;;;;;;3.97;3.35;;;;;;;;;;5910783;28;20449;-74
2023/11/01 03:00:37;;;;;;;5.45;2.88;;;;;;;;;;5911017;28;20056;-74
2023/11/01 03:03:28;;;;;;;5.95;2.35;;;;;;;;;;5910714;28;20055;-74
2023/11/01 03:06:19;;;;;;;4.22;2.58;;;;;;;;;;5910641;28;20052;-74
2023/11/01 03:09:10;;;;;;;3.33;2.67;;;;;;;;;;5909389;28;20059;-75
2023/11/01 03:12:01;;;;;;;8.98;4.40;;;;;;;;;;5910778;28;20517;-73
2023/11/01 03:14:52;;;;;;;9.05;3.30;;;;;;;;;;5910960;28;20067;-74
2023/11/01 03:17:43;;;;;;;4.50;2.95;;;;;;;;;;5910358;28;20040;-74
2023/11/01 03:20:34;;;;;;;6.68;3.00;;;;;;;;;;5910481;28;20044;-75
2023/11/01 03:23:25;;;;;;;7.47;3.15;;;;;;;;;;5909565;28;20144;-74
2023/11/01 03:26:15;;;;;;;4.00;2.72;;;;;;;;;;5910419;28;20383;-75
2023/11/01 03:29:06;;;;;;;3.25;2.95;;;;;;;;;;5910220;28;20060;-75
2023/11/01 03:31:57;;;;;;;2.80;2.60;;;;;;;;;;5910604;28;20049;-75
2023/11/01 03:34:48;;;;;;;4.45;3.00;;;;;;;;;;5910151;28;20048;-75
2023/11/01 03:37:39;;;;;;;4.47;2.80;;;;;;;;;;5910113;28;20051;-74
2023/11/01 03:40:30;;;;;;;3.75;2.53;;;;;;;;;;5910193;28;20498;-74
2023/11/01 03:43:21;;;;;;;4.18;3.13;;;;;;;;;;5909949;28;20059;-74
2023/11/01 03:46:11;;;;;;;3.88;3.17;;;;;;;;;;5910249;28;20052;-74
2023/11/01 03:49:03;;;;;;;6.25;3.08;;;;;;;;;;5910012;28;20049;-74
2023/11/01 03:51:54;;;;;;;2.75;2.30;;;;;;;;;;5910604;28;20047;-74
2023/11/01 03:54:44;;;;;;;2.72;2.45;;;;;;;;;;5909845;28;20059;-75
2023/11/01 03:57:35;;;;;;;2.33;2.13;;;;;;;;;;5909695;28;20063;-74
2023/11/01 04:00:26;;;;;;;3.05;2.75;;;;;;;;;;5909866;28;20041;-75
2023/11/01 04:03:17;;;;;;;3.95;3.55;;;;;;;;;;5909684;28;20053;-74
2023/11/01 04:06:09;;;;;;;9.43;3.88;;;;;;;;;;5909717;28;20098;-74
2023/11/01 04:08:59;;;;;;;6.55;3.30;;;;;;;;;;5910153;28;20075;-74
2023/11/01 04:11:51;;;;;;;3.03;2.55;;;;;;;;;;5908392;28;20045;-74
2023/11/01 04:14:42;;;;;;;2.10;1.60;;;;;;;;;;5909637;28;20101;-74
2023/11/01 04:17:33;;;;;;;2.40;2.17;;;;;;;;;;5924997;28;20129;-74
2023/11/01 04:20:24;;;;;;;2.65;2.15;;;;;;;;;;5909586;28;20465;-74
2023/11/01 04:23:15;;;;;;;4.90;3.13;;;;;;;;;;5909559;28;20399;-74
2023/11/01 04:26:05;;;;;;;2.75;2.55;;;;;;;;;;5909702;28;20639;-74
2023/11/01 04:28:56;;;;;;;1.50;1.40;;;;;;;;;;5910063;28;20414;-74
2023/11/01 04:31:52;;;;;;;2.35;1.83;;;;;;;;;;5908050;28;20040;-74
2023/11/01 04:34:43;;;;;;;2.80;2.40;;;;;;;;;;5911401;28;20052;-74
2023/11/01 04:37:38;;;;;;;2.40;2.20;;;;;;;;;;5913952;28;20051;-75
2023/11/01 04:40:29;;;;;;;4.82;3.10;;;;;;;;;;5914179;28;20049;-75
2023/11/01 04:43:20;;;;;;;3.28;2.63;;;;;;;;;;5912517;28;20052;-74
2023/11/01 04:46:10;;;;;;;4.22;2.70;;;;;;;;;;5914093;28;20068;-74
2023/11/01 04:49:02;;;;;;;3.00;2.13;;;;;;;;;;5913942;28;20049;-74
2023/11/01 04:51:53;;;;;;;1.77;1.67;;;;;;;;;;5914117;28;20040;-74
2023/11/01 04:54:44;;;;;;;2.13;1.98;;;;;;;;;;5913668;28;20044;-74
2023/11/01 04:57:36;;;;;;;2.58;2.03;;;;;;;;;;5913607;28;20579;-74
2023/11/01 05:00:26;;;;;;;2.92;1.98;;;;;;;;;;5913421;28;20063;-75
2023/11/01 05:03:17;;;;;;;2.10;1.45;;;;;;;;;;5913382;28;20048;-74
2023/11/01 05:06:09;;;;;;;2.92;2.67;;;;;;;;;;5913446;28;20049;-75
2023/11/01 05:08:59;;;;;;;4.13;3.10;;;;;;;;;;5912543;28;20056;-75
2023/11/01 05:11:50;;;;;;;3.35;2.53;;;;;;;;;;5913622;28;20045;-75
2023/11/01 05:14:41;;;;;;;2.63;2.42;;;;;;;;;;5913227;28;20517;-74
2023/11/01 05:17:32;;;;;;;3.80;2.67;;;;;;;;;;5913190;28;20040;-74
2023/11/01 05:20:23;;;;;;;2.85;2.30;;;;;;;;;;5913051;28;20045;-75
2023/11/01 05:23:14;;;;;;;8.40;2.47;;;;;;;;;;5913156;28;20055;-74
2023/11/01 05:26:04;;;;;;;3.38;1.95;;;;;;;;;;5913093;28;20540;-75
2023/11/01 05:28:56;;;;;;;6.35;2.72;;;;;;;;;;5913455;28;20455;-75
2023/11/01 05:31:47;;;;;;;2.58;2.35;;;;;;;;;;5912918;28;20044;-75
2023/11/01 05:34:38;;;;;;;11.40;1.95;;;;;;;;;;5912796;28;20048;-74
2023/11/01 05:37:29;;;;;;;4.60;2.38;;;;;;;;;;5912799;28;20067;-75
2023/11/01 05:40:19;;;;;;;2.53;2.08;;;;;;;;;;5912630;28;20049;-75
2023/11/01 05:43:10;;;;;;;2.22;1.63;;;;;;;;;;5912573;28;20512;-75
2023/11/01 05:46:01;;;;;;;3.90;2.13;;;;;;;;;;5911795;28;20421;-74
2023/11/01 05:48:52;;;;;;;3.85;2.67;;;;;;;;;;5912995;28;20048;-74
2023/11/01 05:51:43;;;;;;;4.63;2.85;;;;;;;;;;5912528;28;20068;-74
2023/11/01 05:54:34;;;;;;;3.08;2.60;;;;;;;;;;5912385;28;20048;-74
2023/11/01 05:57:25;;;;;;;3.30;2.97;;;;;;;;;;5912530;28;20052;-74
2023/11/01 06:00:20;;;;;;;4.85;3.22;;;;;;;;;;5910813;28;20052;-74
2023/11/01 06:03:11;;;;;;;3.60;2.90;;;;;;;;;;5912908;28;20050;-75
2023/11/01 06:06:04;;;;;;;2.97;2.67;;;;;;;;;;5910632;28;20070;-74
2023/11/01 06:08:55;;;;;;;2.28;2.08;;;;;;;;;;5912700;28;20162;-75
2023/11/01 06:11:46;;;;;;;2.65;2.40;;;;;;;;;;5912083;28;20497;-75
2023/11/01 06:14:37;;;;;;;3.45;2.30;;;;;;;;;;5911822;28;20494;-75
2023/11/01 06:17:27;;;;;;;2.83;1.92;;;;;;;;;;5908655;28;20044;-74
2023/11/01 06:20:19;;;;;;;4.18;2.60;;;;;;;;;;5895844;28;20086;-74
2023/11/01 06:23:10;;;;;;;2.45;1.95;;;;;;;;;;5905097;28;20049;-75
2023/11/01 06:26:01;;;;;;;5.13;3.20;;;;;;;;;;5889170;28;20414;-73
2023/11/01 06:28:51;;;;;;;3.35;3.05;;;;;;;;;;5888596;28;20059;-74
2023/11/01 06:31:42;;;;;;;1.88;1.45;;;;;;;;;;5888637;28;20410;-75
2023/11/01 06:34:33;;;;;;;6.30;2.45;;;;;;;;;;5888386;28;20498;-75
2023/11/01 06:37:24;;;;;;;4.22;2.38;;;;;;;;;;5888307;28;20055;-75
2023/11/01 06:40:15;;;;;;;2.97;2.33;;;;;;;;;;5888150;28;20395;-74
2023/11/01 06:43:07;;;;;;;2.80;2.00;;;;;;;;;;5888374;28;20443;-74
2023/11/01 06:45:58;;;;;;;4.78;3.05;;;;;;;;;;5888952;28;20060;-74
2023/11/01 06:48:49;;;;;;;3.10;2.60;;;;;;;;;;5887992;28;20418;-74
2023/11/01 06:51:39;;;;;;;4.90;3.03;;;;;;;;;;5888069;28;20832;-75
2023/11/01 06:54:30;;;;;;;3.22;2.25;;;;;;;;;;5888180;28;20049;-74
2023/11/01 06:57:21;;;;;;;3.05;2.70;;;;;;;;;;5888012;28;20406;-74
2023/11/01 07:00:13;;;;;;;7.65;2.72;;;;;;;;;;5910994;28;20044;-74
2023/11/01 07:03:04;;;;;;;2.00;1.80;;;;;;;;;;5904111;28;20055;-74
2023/11/01 07:05:59;;;;;;;2.75;2.00;;;;;;;;;;5888634;28;20445;-74
2023/11/01 07:08:50;;;;;;;4.82;2.78;;;;;;;;;;5887907;28;20045;-74
2023/11/01 07:11:40;;;;;;;3.38;2.60;;;;;;;;;;5887625;28;20163;-74
2023/11/01 07:14:31;;;;;;;8.90;5.15;;;;;;;;;;5887621;28;20415;-74
2023/11/01 07:17:26;;;;;;;9.43;3.47;;;;;;;;;;5887184;28;20048;-75
2023/11/01 07:20:17;;;;;;;3.05;2.42;;;;;;;;;;5887259;28;20053;-75
2023/11/01 07:23:08;;;;;;;2.53;1.98;;;;;;;;;;5887461;28;20494;-74
2023/11/01 07:25:59;;;;;;;3.30;2.25;;;;;;;;;;5888200;28;20048;-75
2023/11/01 07:28:50;;;;;;;1.52;1.33;;;;;;;;;;5887690;28;20045;-75
2023/11/01 07:31:40;;;;;;;2.17;1.88;;;;;;;;;;5887158;28;20052;-74
2023/11/01 07:34:31;;;;;;;7.13;2.30;;;;;;;;;;5887163;28;20053;-75
2023/11/01 07:37:22;;;;;;;5.93;3.88;;;;;;;;;;5886563;28;20048;-75
2023/11/01 07:40:13;;;;;;;1.85;1.75;;;;;;;;;;5886509;28;20414;-76
2023/11/01 07:43:03;;;;;;;2.25;2.05;;;;;;;;;;5887282;28;20049;-74
2023/11/01 07:45:54;;;;;;;2.60;1.27;;;;;;;;;;5887999;28;20517;-75
2023/11/01 07:48:47;;;;;;;2.63;1.67;;;;;;;;;;5886573;28;20048;-75
2023/11/01 07:51:38;;;;;;;2.67;2.38;;;;;;;;;;5887286;28;20363;-75
2023/11/01 07:54:31;;;;;;;2.17;1.83;;;;;;;;;;5887166;28;20052;-75
2023/11/01 07:57:22;;;;;;;2.25;1.92;;;;;;;;;;5885842;28;20049;-74
2023/11/01 08:00:15;;;;;;;11.25;2.10;;;;;;;;;;5886781;28;20057;-75
2023/11/01 08:03:06;;;;;;;2.35;1.90;;;;;;;;;;5886738;28;20056;-74
2023/11/01 08:05:57;;;;;;;4.32;1.75;;;;;;;;;;5887656;28;20071;-75
2023/11/01 08:08:47;;;;;;;9.68;2.15;;;;;;;;;;5884857;28;20068;-75
2023/11/01 08:11:38;;;;;;;3.33;1.92;;;;;;;;;;5887184;28;20521;-75
2023/11/01 08:14:29;;;;;;;2.33;1.90;;;;;;;;;;5886828;28;20512;-74
2023/11/01 08:17:20;;;;;;;2.50;1.73;;;;;;;;;;5886518;28;20067;-74
2023/11/01 08:20:11;;;;;;;4.47;2.50;;;;;;;;;;5886340;28;20099;-73
2023/11/01 08:23:02;;;;;;;3.28;1.92;;;;;;;;;;5886864;28;20049;-74
2023/11/01 08:25:52;;;;;;;2.13;1.60;;;;;;;;;;5887557;28;20053;-73
2023/11/01 08:28:43;;;;;;;3.25;1.88;;;;;;;;;;5885478;28;20041;-73
2023/11/01 08:31:34;;;;;;;2.33;1.70;;;;;;;;;;5884559;28;20536;-73
2023/11/01 08:34:25;;;;;;;2.20;1.85;;;;;;;;;;5885341;28;20056;-73
2023/11/01 08:37:16;;;;;;;2.25;1.58;;;;;;;;;;5886880;28;20128;-72
2023/11/01 08:40:08;;;;;;;2.30;1.60;;;;;;;;;;5909009;28;20048;-73
2023/11/01 08:42:59;;;;;;;2.03;1.10;;;;;;;;;;5920651;28;20068;-73
2023/11/01 08:45:49;;;;;;;3.20;1.85;;;;;;;;;;5886944;28;20040;-74
2023/11/01 08:48:40;;;;;;;2.78;1.75;;;;;;;;;;5886020;28;20064;-72
2023/11/01 08:51:31;;;;;;;1.42;1.33;;;;;;;;;;5886684;28;20200;-72
2023/11/01 08:54:24;;;;;;;1.13;1.02;;;;;;;;;;5886469;28;20498;-73
2023/11/01 08:57:15;;;;;;;5.70;1.13;;;;;;;;;;5886680;28;20052;-73
2023/11/01 09:00:08;;;;;;;1.40;1.30;;;;;;;;;;5885860;28;20057;-72
2023/11/01 09:02:59;;;;;;;4.78;1.52;;;;;;;;;;5881827;28;20053;-72
2023/11/01 09:05:50;;;;;;;4.20;1.65;;;;;;;;;;5886600;28;20486;-72
2023/11/01 09:08:41;;;;;;;3.50;1.73;;;;;;;;;;5886263;28;20123;-71
2023/11/01 09:11:31;;;;;;;6.97;1.70;;;;;;;;;;5888689;28;20048;-72
2023/11/01 09:14:22;;;;;;;1.35;0.95;;;;;;;;;;5892432;28;20044;-72
2023/11/01 09:17:14;;;;;;;2.15;1.10;;;;;;;;;;5885957;28;20056;-72
2023/11/01 09:20:06;;;;;;;3.13;0.95;;;;;;;;;;5885276;28;20048;-72
2023/11/01 09:22:58;;;;;;;1.13;1.02;;;;;;;;;;5889929;28;20518;-72
2023/11/01 09:25:50;;;;;;;1.13;0.98;;;;;;;;;;5890256;28;20041;-72
2023/11/01 09:28:41;;;;;;;2.38;1.63;;;;;;;;;;5889685;28;20411;-71
2023/11/01 09:31:37;;;;;;;6.47;1.10;;;;;;;;;;5889466;28;20048;-72
2023/11/01 09:34:28;;;;;;;2.95;1.15;;;;;;;;;;5898274;28;20443;-72
2023/11/01 09:37:19;;;;;;;1.80;1.17;;;;;;;;;;5913208;28;20083;-72
2023/11/01 09:40:11;;;;;;;1.42;0.95;;;;;;;;;;5912426;28;20055;-72
2023/11/01 09:43:07;;;;;;;4.20;1.52;;;;;;;;;;5907029;28;20044;-72
2023/11/01 09:45:58;;;;;;;1.75;1.17;;;;;;;;;;5899339;28;20076;-72
2023/11/01 09:48:53;;;;;;;1.45;0.70;;;;;;;;;;5903391;28;20055;-72
2023/11/01 09:51:44;;;;;;;0.63;0.63;;;;;;;;;;5906741;28;20044;-72
2023/11/01 09:54:35;;;;;;;1.80;1.27;;;;;;;;;;5891844;28;20446;-71
2023/11/01 09:57:29;;;;;;;1.45;1.30;;;;;;;;;;5889113;28;20052;-72
2023/11/01 10:00:21;;;;;;;1.88;1.27;;;;;;;;;;5888991;28;20053;-71
2023/11/01 10:03:12;;;;;;;3.72;1.42;;;;;;;;;;5887689;28;20049;-72
2023/11/01 10:06:03;;;;;;;7.50;1.20;;;;;;;;;;5889292;28;20494;-72
2023/11/01 10:08:55;;;;;;;0.70;0.70;;;;;;;;;;5889250;28;20045;-72
2023/11/01 10:11:46;;;;;;;1.13;0.88;;;;;;;;;;5888962;28;20134;-72
2023/11/01 10:14:37;;;;;;;0.60;0.60;;;;;;;;;;5888834;28;20056;-72
2023/11/01 10:17:28;;;;;;;2.50;1.35;;;;;;;;;;5888414;28;20049;-72
2023/11/01 10:20:27;;;;;;;1.33;0.98;;;;;;;;;;5888572;28;20187;-71
2023/11/01 10:23:18;;;;;;;0.98;0.60;;;;;;;;;;5886991;28;20422;-71
2023/11/01 10:26:09;;;;;;;1.75;1.25;;;;;;;;;;5887085;28;20049;-71
2023/11/01 10:29:00;;;;;;;1.42;1.33;;;;;;;;;;5901725;28;20056;-71
2023/11/01 10:31:58;;;;;;;2.05;1.45;;;;;;;;;;5911287;28;20037;-72
2023/11/01 10:34:49;;;;;;;0.85;0.85;;;;;;;;;;5890211;28;20044;-71
2023/11/01 10:37:40;;;;;;;1.75;0.75;;;;;;;;;;5888092;28;20052;-72
2023/11/01 10:40:31;;;;;;;1.75;1.02;;;;;;;;;;5887951;28;20049;-71
2023/11/01 10:43:24;;;;;;;1.58;0.98;;;;;;;;;;5888028;28;20049;-71
2023/11/01 10:46:16;;;;;;;0.60;0.60;;;;;;;;;;5887210;28;20494;-71
2023/11/01 10:49:10;;;;;;;2.47;1.23;;;;;;;;;;5887810;28;20057;-71
2023/11/01 10:52:02;;;;;;;0.57;0.57;;;;;;;;;;5891819;28;20060;-72
2023/11/01 10:54:54;;;;;;;4.60;1.55;;;;;;;;;;5887784;28;20045;-71
2023/11/01 10:57:49;;;;;;;0.63;0.63;;;;;;;;;;5890837;28;20139;-71
2023/11/01 11:00:49;;;;;;;2.60;1.20;;;;;;;;;;5910852;28;20040;-71
2023/11/01 11:03:59;;;;;;;1.50;0.65;;;;;;;;;;5896600;28;20518;-72
2023/11/01 11:07:40;;;;;;;4.03;1.83;;;;;;;;;;5885469;28;20128;-71
2023/11/01 11:10:32;;;;;;;0.90;0.82;;;;;;;;;;5887232;28;20041;-72
2023/11/01 11:13:25;;;;;;;5.25;1.45;;;;;;;;;;5886065;28;20182;-71
2023/11/01 11:16:20;;;;;;;2.35;0.85;;;;;;;;;;5887621;28;20067;-71
2023/11/01 11:19:11;;;;;;;1.73;1.08;;;;;;;;;;5902242;28;20457;-71
2023/11/01 11:22:02;;;;;;;0.88;0.43;;;;;;;;;;5910547;28;20048;-71
2023/11/01 11:24:57;;;;;;;6.45;1.10;;;;;;;;;;5889925;28;20128;-71
2023/11/01 11:27:48;;;;;;;3.85;1.17;;;;;;;;;;5887082;28;20068;-72
2023/11/01 11:31:05;;;;;;;0.40;0.40;;;;;;;;;;5886923;28;20052;-72
2023/11/01 11:33:59;;;;;;;1.30;0.93;;;;;;;;;;5899694;28;20093;-72
2023/11/01 11:37:11;;;;;;;1.23;0.70;;;;;;;;;;5909279;28;20040;-72
2023/11/01 11:40:07;;;;;;;0.65;0.57;;;;;;;;;;5908629;28;20409;-71
2023/11/01 11:42:59;;;;;;;2.75;0.22;;;;;;;;;;5910147;28;20079;-72
2023/11/01 11:45:50;;;;;;;7.63;0.95;;;;;;;;;;5909650;28;20047;-72
2023/11/01 11:48:41;;;;;;;2.13;1.20;;;;;;;;;;5909882;28;20045;-71
2023/11/01 11:51:36;;;;;;;0.98;0.88;;;;;;;;;;5909883;28;20045;-71
2023/11/01 11:54:32;;;;;;;8.30;1.13;;;;;;;;;;5909565;28;20044;-71
2023/11/01 11:57:26;;;;;;;2.08;1.00;;;;;;;;;;5909763;28;20045;-71
2023/11/01 12:00:17;;;;;;;3.78;2.58;;;;;;;;;;5909544;28;20056;-71
2023/11/01 12:03:22;;;;;;;1.88;0.90;;;;;;;;;;5909602;28;20049;-70
2023/11/01 12:06:12;;;;;;;3.70;2.38;;;;;;;;;;5910113;28;20521;-71
2023/11/01 12:09:04;;;;;;;3.63;2.17;;;;;;;;;;5909406;28;20055;-71
2023/11/01 12:12:10;;;;;;;6.22;4.25;;;;;;;;;;5910164;28;20063;-71
2023/11/01 12:15:03;;;;;;;3.97;2.95;;;;;;;;;;5909319;28;20131;-71
2023/11/01 12:18:11;;;;;;;3.15;1.98;;;;;;;;;;5910026;28;20048;-71
2023/11/01 12:21:12;;;;;;;6.43;3.50;;;;;;;;;;5909356;28;20186;-70
2023/11/01 12:24:03;;;;;;;7.47;3.42;;;;;;;;;;5909392;28;20075;-70
2023/11/01 12:27:03;;;;;;;3.28;1.98;;;;;;;;;;5910041;28;20391;-71
2023/11/01 12:29:55;;;;;;;3.28;1.60;;;;;;;;;;5909697;28;20120;-71
2023/11/01 12:32:46;;;;;;;11.35;4.32;;;;;;;;;;5909311;28;20127;-71
2023/11/01 12:35:44;;;;;;;10.07;5.15;;;;;;;;;;5909196;28;20088;-71
2023/11/01 12:38:36;;;;;;;3.22;2.38;;;;;;;;;;5909323;28;20073;-71
2023/11/01 12:41:26;;;;;;;4.32;1.45;;;;;;;;;;5909392;28;20044;-71
2023/11/01 12:44:17;;;;;;;12.07;6.22;;;;;;;;;;5909577;28;20572;-70
2023/11/01 12:47:08;;;;;;;9.73;3.63;;;;;;;;;;5909234;28;20060;-70
2023/11/01 12:49:59;;;;;;;5.35;2.08;;;;;;;;;;5909708;28;20550;-70
2023/11/01 12:52:50;;;;;;;10.82;4.68;;;;;;;;;;5909664;28;20048;-70
2023/11/01 12:55:41;;;;;;;7.95;3.85;;;;;;;;;;5910864;28;20047;-70
2023/11/01 12:58:32;;;;;;;1.48;0.93;;;;;;;;;;5913624;28;20045;-71
2023/11/01 13:01:22;;;;;;;3.45;2.03;;;;;;;;;;5913450;28;20044;-70
2023/11/01 13:04:13;;;;;;;4.43;2.53;;;;;;;;;;5913347;28;20525;-71
2023/11/01 13:07:05;;;;;;;3.78;2.40;;;;;;;;;;5913629;28;20131;-70
2023/11/01 13:09:59;;;;;;;2.25;1.65;;;;;;;;;;5913878;28;20045;-70
2023/11/01 13:12:50;;;;;;;6.93;4.00;;;;;;;;;;5913483;28;20047;-71
2023/11/01 13:15:41;;;;;;;4.60;1.92;;;;;;;;;;5913185;28;20055;-70
2023/11/01 13:18:32;;;;;;;3.40;2.10;;;;;;;;;;5913171;28;20277;-70
2023/11/01 13:21:22;;;;;;;5.53;2.90;;;;;;;;;;5912980;28;20040;-71
2023/11/01 13:24:13;;;;;;;20.45;9.55;;;;;;;;;;5913088;28;20053;-71
2023/11/01 13:27:10;;;;;;;7.93;3.95;;;;;;;;;;5913114;28;20052;-71
2023/11/01 13:30:00;;;;;;;4.13;3.05;;;;;;;;;;5913128;28;20041;-71
2023/11/01 13:32:51;;;;;;;3.67;2.28;;;;;;;;;;5913249;28;20053;-71
2023/11/01 13:35:42;;;;;;;16.00;5.00;;;;;;;;;;5912628;28;20545;-71
2023/11/01 13:38:33;;;;;;;5.85;2.92;;;;;;;;;;5912772;28;20048;-70
2023/11/01 13:41:24;;;;;;;7.03;3.35;;;;;;;;;;5912608;28;20791;-70
2023/11/01 13:44:15;;;;;;;5.28;3.22;;;;;;;;;;5912430;28;20422;-70
2023/11/01 13:47:07;;;;;;;11.15;6.38;;;;;;;;;;5912399;28;20049;-70
2023/11/01 13:49:57;;;;;;;20.50;8.38;;;;;;;;;;5912959;28;20041;-70
2023/11/01 13:52:48;;;;;;;8.77;4.65;;;;;;;;;;5912454;28;20048;-70
2023/11/01 13:55:45;;;;;;;4.78;2.38;;;;;;;;;;5912508;28;20048;-70
2023/11/01 13:58:42;;;;;;;1.27;1.17;;;;;;;;;;5895936;28;20043;-70
2023/11/01 14:01:33;;;;;;;3.60;1.27;;;;;;;;;;5912153;28;20048;-70
2023/11/01 14:04:24;;;;;;;1.50;1.23;;;;;;;;;;5911901;28;20053;-70
2023/11/01 14:07:16;;;;;;;2.67;1.80;;;;;;;;;;5911397;28;20102;-70
2023/11/01 14:10:07;;;;;;;12.32;1.10;;;;;;;;;;5911917;28;20049;-71
2023/11/01 14:13:03;;;;;;;8.18;1.92;;;;;;;;;;5912234;28;20048;-70
2023/11/01 14:15:55;;;;;;;1.73;0.80;;;;;;;;;;5911676;28;20068;-70
2023/11/01 14:18:46;;;;;;;1.02;0.93;;;;;;;;;;5911426;28;20064;-70
2023/11/01 14:21:37;;;;;;;7.55;1.67;;;;;;;;;;5911482;28;20040;-71
2023/11/01 14:24:27;;;;;;;4.15;1.52;;;;;;;;;;5911789;28;20037;-71
2023/11/01 14:27:19;;;;;;;1.92;1.25;;;;;;;;;;5911305;28;20060;-70
2023/11/01 14:30:10;;;;;;;5.45;2.08;;;;;;;;;;5911303;28;20049;-70
2023/11/01 14:33:01;;;;;;;5.53;3.25;;;;;;;;;;5911410;28;20049;-70
2023/11/01 14:35:52;;;;;;;9.73;4.00;;;;;;;;;;5910844;28;20045;-70
2023/11/01 14:38:43;;;;;;;6.45;2.53;;;;;;;;;;5911053;28;20127;-70
2023/11/01 14:41:35;;;;;;;1.55;1.40;;;;;;;;;;5910842;28;20052;-70
2023/11/01 14:44:26;;;;;;;2.78;2.58;;;;;;;;;;5910630;28;20048;-70
2023/11/01 14:47:17;;;;;;;3.75;2.63;;;;;;;;;;5909590;28;20048;-70
2023/11/01 14:50:10;;;;;;;3.88;2.65;;;;;;;;;;5910890;28;20426;-70
2023/11/01 14:53:01;;;;;;;3.60;2.40;;;;;;;;;;5910758;28;20052;-70
2023/11/01 14:55:53;;;;;;;21.15;3.58;;;;;;;;;;5911399;28;20044;-70
2023/11/01 14:58:46;;;;;;;7.35;3.05;;;;;;;;;;5910752;28;20044;-70
2023/11/01 15:01:39;;;;;;;7.82;4.88;;;;;;;;;;5910774;28;20517;-70
2023/11/01 15:04:30;;;;;;;7.18;4.63;;;;;;;;;;5910263;28;20048;-70
2023/11/01 15:07:21;;;;;;;13.32;5.55;;;;;;;;;;5910444;28;20056;-69
2023/11/01 15:10:12;;;;;;;5.63;2.97;;;;;;;;;;5910225;28;20048;-69
2023/11/01 15:13:02;;;;;;;5.15;3.15;;;;;;;;;;5910076;28;20050;-70
2023/11/01 15:15:53;;;;;;;2.72;1.33;;;;;;;;;;5910883;28;20060;-69
2023/11/01 15:18:46;;;;;;;1.80;1.30;;;;;;;;;;5908829;28;20044;-69
2023/11/01 15:21:38;;;;;;;6.03;1.23;;;;;;;;;;5909903;28;20105;-69
2023/11/01 15:24:29;;;;;;;1.65;1.02;;;;;;;;;;5910050;28;20449;-69
2023/11/01 15:27:22;;;;;;;4.63;3.08;;;;;;;;;;5909871;28;20060;-69
2023/11/01 15:30:15;;;;;;;14.13;5.63;;;;;;;;;;5909733;28;20056;-69
2023/11/01 15:33:06;;;;;;;8.68;4.88;;;;;;;;;;5909803;28;20041;-69
2023/11/01 15:35:57;;;;;;;15.30;4.93;;;;;;;;;;5910207;28;20127;-69
2023/11/01 15:38:48;;;;;;;12.48;6.75;;;;;;;;;;5909582;28;20062;-69
2023/11/01 15:41:40;;;;;;;16.40;5.75;;;;;;;;;;5909538;28;20044;-69
2023/11/01 15:44:30;;;;;;;19.98;6.22;;;;;;;;;;5909591;28;20045;-69
2023/11/01 15:47:22;;;;;;;6.80;4.05;;;;;;;;;;5908930;28;20516;-69
2023/11/01 15:50:13;;;;;;;33.28;12.10;;;;;;;;;;5909382;28;20056;-69
2023/11/01 15:53:04;;;;;;;12.65;6.45;;;;;;;;;;5909800;28;20418;-69
2023/11/01 15:55:55;;;;;;;41.60;19.17;;;;;;;;;;5910078;28;20048;-68
2023/11/01 15:58:46;;;;;;;51.45;23.80;;;;;;;;;;5909479;28;20049;-69
2023/11/01 16:01:37;;;;;;;55.72;29.42;;;;;;;;;;5909486;28;20044;-69
2023/11/01 16:04:28;;;;;;;70.15;31.40;;;;;;;;;;5909371;28;20425;-69
2023/11/01 16:07:20;;;;;;;38.70;19.17;;;;;;;;;;5909294;28;20167;-69
2023/11/01 16:10:11;;;;;;;14.23;9.60;;;;;;;;;;5909169;28;20413;-69
2023/11/01 16:13:01;;;;;;;8.48;5.13;;;;;;;;;;5909156;28;20080;-70
2023/11/01 16:15:53;;;;;;;7.32;5.32;;;;;;;;;;5909598;28;20048;-69
2023/11/01 16:18:44;;;;;;;43.88;11.18;;;;;;;;;;5909110;28;20142;-69
2023/11/01 16:21:35;;;;;;;23.08;7.72;;;;;;;;;;5909024;28;20041;-69
2023/11/01 16:24:26;;;;;;;11.93;6.28;;;;;;;;;;5907748;28;20421;-68
2023/11/01 16:27:21;;;;;;;9.82;4.80;;;;;;;;;;5909101;28;20048;-69
2023/11/01 16:30:13;;;;;;;6.22;2.55;;;;;;;;;;5910087;28;20169;-69
2023/11/01 16:33:04;;;;;;;11.55;3.35;;;;;;;;;;5913855;28;20049;-69
2023/11/01 16:35:55;;;;;;;10.48;5.00;;;;;;;;;;5914041;28;20543;-68
2023/11/01 16:38:47;;;;;;;3.88;2.95;;;;;;;;;;5913512;28;20095;-68
2023/11/01 16:41:42;;;;;;;4.90;3.28;;;;;;;;;;5913595;28;20052;-68
2023/11/01 16:44:33;;;;;;;9.73;6.13;;;;;;;;;;5913273;28;20045;-69
2023/11/01 16:47:23;;;;;;;8.73;4.63;;;;;;;;;;5913600;28;20391;-69
2023/11/01 16:50:14;;;;;;;4.55;3.97;;;;;;;;;;5913392;28;20044;-69
2023/11/01 16:53:05;;;;;;;4.07;3.05;;;;;;;;;;5911972;28;20044;-68
2023/11/01 16:55:57;;;;;;;9.45;3.60;;;;;;;;;;5913892;28;20410;-68
2023/11/01 16:58:47;;;;;;;10.93;3.20;;;;;;;;;;5913230;28;20044;-68
2023/11/01 17:01:38;;;;;;;7.82;3.83;;;;;;;;;;5913214;28;20599;-68
2023/11/01 17:04:29;;;;;;;2.88;2.33;;;;;;;;;;5912953;28;20040;-68
2023/11/01 17:07:21;;;;;;;7.32;2.85;;;;;;;;;;5913081;28;20375;-68